»·PEaware :: N975SR L88-L52

N975SR :: L88-L52

FLIGHT INFORMATION

Flight Status: Arrived
Operator: Privately registered:
United States
More flights under this callsign
Pilot: Tyrone B. (26005)
Aircraft: CESSNA 172 SKYHAWK
(C172)
More flights by this aircraft type
Origin: L88 New Cuyama
United States
Destination: L52 Oceano Co
United States
More flights between these airports :: More routes between these airports
Route: FLW L52
File this flight plan on PilotEdge
Remarks: CAT 1 Flight
Altitude:
(Current/Filed)
4,500ft
Speed:
(Current/Filed)
120kts
Departed: 29-Aug-19 06:32 PM
Arrived: 29-Aug-19 07:07 PM
Distance/Time
Traveled:
47nm/0:35
Distance/Time
To Go:
Arrived

Flight Plot

Page will automatically refresh every two minutes.

Flight plan parsing failed; only flown route is shown


Map Options




Map Legend


Flown Route
Filed Route
Departure Airport
Arrival Airport
Navaid (VOR, NDB)
Fix

Horizontal Profiles

Position Reports

Time Latitude Longitude Heading Altitude Ground
Speed
29-Aug-19 18:23 34.942856 -119.690285 204 2156ft 0kts
29-Aug-19 18:24 34.942856 -119.690285 204 2156ft 0kts
29-Aug-19 18:25 34.942856 -119.690285 204 2156ft 0kts
29-Aug-19 18:26 34.942856 -119.690285 204 2156ft 0kts
29-Aug-19 18:27 34.942856 -119.690285 204 2156ft 0kts
29-Aug-19 18:28 34.942706 -119.690534 283 2156ft 0kts
29-Aug-19 18:29 34.942706 -119.690534 283 2156ft 0kts
29-Aug-19 18:30 34.942759 -119.691146 190 2155ft 2kts
29-Aug-19 18:31 34.940416 -119.686734 115 2172ft 74kts
29-Aug-19 18:32 34.933856 -119.660307 55 2785ft 101kts
29-Aug-19 18:33 34.955716 -119.672150 300 3302ft 110kts
29-Aug-19 18:34 34.971641 -119.704647 300 3803ft 112kts
29-Aug-19 18:35 34.987614 -119.737365 301 4302ft 112kts
29-Aug-19 18:36 35.009938 -119.765711 314 4548ft 126kts
29-Aug-19 18:37 35.036144 -119.795565 315 4519ft 129kts
29-Aug-19 18:38 35.059573 -119.828058 304 4519ft 126kts
29-Aug-19 18:39 35.081304 -119.861558 304 4522ft 125kts
29-Aug-19 18:40 35.094064 -119.899966 289 4520ft 123kts
29-Aug-19 18:41 35.093347 -119.940962 268 4521ft 121kts
29-Aug-19 18:43 35.094633 -119.982076 273 4521ft 121kts
29-Aug-19 18:44 35.096254 -120.023097 269 4522ft 120kts
29-Aug-19 18:45 35.096457 -120.064013 271 4523ft 120kts
29-Aug-19 18:46 35.097140 -120.104656 270 4524ft 119kts
29-Aug-19 18:47 35.097705 -120.145269 271 4518ft 119kts
29-Aug-19 18:48 35.098268 -120.183981 273 4206ft 110kts
29-Aug-19 18:49 35.098709 -120.221128 271 3900ft 109kts
29-Aug-19 18:50 35.098836 -120.258216 271 3591ft 109kts
29-Aug-19 18:51 35.098840 -120.295285 271 3280ft 108kts
29-Aug-19 18:52 35.098723 -120.331981 271 2968ft 106kts
29-Aug-19 18:53 35.098482 -120.367510 272 2685ft 104kts
29-Aug-19 18:54 35.098069 -120.401171 272 2694ft 98kts
29-Aug-19 18:55 35.098259 -120.435302 274 2689ft 100kts
29-Aug-19 18:56 35.098879 -120.469534 274 2691ft 101kts
29-Aug-19 18:57 35.099475 -120.503854 274 2690ft 101kts
29-Aug-19 18:58 35.099792 -120.534612 274 2361ft 77kts
29-Aug-19 18:59 35.099341 -120.558667 275 2023ft 65kts
29-Aug-19 19:00 35.098536 -120.580019 275 1687ft 60kts
29-Aug-19 19:01 35.097449 -120.600094 275 1361ft 58kts
29-Aug-19 19:02 35.098562 -120.619189 281 1067ft 53kts
29-Aug-19 19:02 35.083198 -120.619939 143 1097ft 113kts
29-Aug-19 19:04 35.070888 -120.589740 359 971ft 54kts
29-Aug-19 19:04 35.081998 -120.591137 315 735ft 46kts
29-Aug-19 19:05 35.091179 -120.603747 308 409ft 49kts
29-Aug-19 19:07 35.099998 -120.619375 307 18ft 31kts
29-Aug-19 19:07 35.101308 -120.622643 266 15ft 1kts
29-Aug-19 19:08 35.102120 -120.624207 346 14ft 0kts
29-Aug-19 19:09 35.102602 -120.623891 37 15ft 8kts
29-Aug-19 19:10 35.103292 -120.624332 208 15ft 0kts
29-Aug-19 19:11 35.103292 -120.624332 208 15ft 0kts
29-Aug-19 19:12 35.103292 -120.624332 208 15ft 0kts
29-Aug-19 19:13 35.103292 -120.624332 208 15ft 0kts
29-Aug-19 19:14 35.103292 -120.624332 208 15ft 0kts

Navigation Log

Ident Type
Flight plan parsing failed, navigation log unavailable